L'Annonciation, Canada
Current Conditions -  °F | °C
As of 1:00 AM on Monday 24 Nov 2014 (Local Time) from CYMX Reporting Station
Haze Haze  
Wind Chill: 31°   Ceiling: 400
Heat Index: 36°   Visibility: 1.5mi
Dew Point: 36°   Wind: 6mph
Humidity: 100%   Direction: 40°NE
Pressure: 29.87"   Gusts: NA
Location:  46.4°N, 74.87°W
Report Text: CYMX 240600Z 04005KT 1 1/2SM BR BKN004 BKN065 OVC090 02/02 A2987 RMK FG3SF2SC2AC1 SLP118
Loading
Personal Weather Stations






























Interactive Weather Map New forecast layout! Learn more

10-Day Weather Forecast

Advertisements
Track Severe Weather on mobile